sensor_id;sensor_type;location;lat;lon;timestamp;temperature;humidity
7028;DHT22;3555;53.248;10.336;2024-02-21T00:02:21;8.20;99.90
7028;DHT22;3555;53.248;10.336;2024-02-21T00:04:49;8.20;99.90
7028;DHT22;3555;53.248;10.336;2024-02-21T00:07:16;8.20;99.90
7028;DHT22;3555;53.248;10.336;2024-02-21T00:09:43;8.20;99.90
7028;DHT22;3555;53.248;10.336;2024-02-21T00:12:10;8.10;99.90
7028;DHT22;3555;53.248;10.336;2024-02-21T00:14:39;8.20;99.90
7028;DHT22;3555;53.248;10.336;2024-02-21T00:17:06;8.20;99.90
7028;DHT22;3555;53.248;10.336;2024-02-21T00:19:34;8.10;99.90
7028;DHT22;3555;53.248;10.336;2024-02-21T00:22:02;8.10;99.90
7028;DHT22;3555;53.248;10.336;2024-02-21T00:24:29;8.20;99.90
7028;DHT22;3555;53.248;10.336;2024-02-21T00:26:55;8.20;99.90
7028;DHT22;3555;53.248;10.336;2024-02-21T00:29:22;8.20;99.90
7028;DHT22;3555;53.248;10.336;2024-02-21T00:31:49;8.20;99.90
7028;DHT22;3555;53.248;10.336;2024-02-21T00:34:16;8.20;99.90
7028;DHT22;3555;53.248;10.336;2024-02-21T00:36:43;8.20;99.90
7028;DHT22;3555;53.248;10.336;2024-02-21T00:39:11;8.30;99.90
7028;DHT22;3555;53.248;10.336;2024-02-21T00:41:38;8.30;99.90
7028;DHT22;3555;53.248;10.336;2024-02-21T00:44:05;8.30;99.90
7028;DHT22;3555;53.248;10.336;2024-02-21T00:46:32;8.20;99.90
7028;DHT22;3555;53.248;10.336;2024-02-21T00:48:59;8.20;99.90
7028;DHT22;3555;53.248;10.336;2024-02-21T00:51:25;8.10;99.90
7028;DHT22;3555;53.248;10.336;2024-02-21T00:53:52;8.10;99.90
7028;DHT22;3555;53.248;10.336;2024-02-21T00:56:20;8.10;99.90
7028;DHT22;3555;53.248;10.336;2024-02-21T00:58:47;8.10;99.90
7028;DHT22;3555;53.248;10.336;2024-02-21T01:01:21;8.10;99.90
7028;DHT22;3555;53.248;10.336;2024-02-21T01:03:48;8.20;99.90
7028;DHT22;3555;53.248;10.336;2024-02-21T01:06:15;8.10;99.90
7028;DHT22;3555;53.248;10.336;2024-02-21T01:08:42;8.10;99.90
7028;DHT22;3555;53.248;10.336;2024-02-21T01:11:09;8.10;99.90
7028;DHT22;3555;53.248;10.336;2024-02-21T01:13:37;8.10;99.90
7028;DHT22;3555;53.248;10.336;2024-02-21T01:16:04;8.10;99.90
7028;DHT22;3555;53.248;10.336;2024-02-21T01:18:32;8.20;99.90
7028;DHT22;3555;53.248;10.336;2024-02-21T01:20:59;8.20;99.90
7028;DHT22;3555;53.248;10.336;2024-02-21T01:23:26;8.20;99.90
7028;DHT22;3555;53.248;10.336;2024-02-21T01:25:53;8.20;99.90
7028;DHT22;3555;53.248;10.336;2024-02-21T01:28:19;8.20;99.90
7028;DHT22;3555;53.248;10.336;2024-02-21T01:30:47;8.20;99.90
7028;DHT22;3555;53.248;10.336;2024-02-21T01:33:14;8.20;99.90
7028;DHT22;3555;53.248;10.336;2024-02-21T01:35:41;8.30;99.90
7028;DHT22;3555;53.248;10.336;2024-02-21T01:38:08;8.20;99.90
7028;DHT22;3555;53.248;10.336;2024-02-21T01:40:35;8.30;99.90
7028;DHT22;3555;53.248;10.336;2024-02-21T01:43:03;8.20;99.90
7028;DHT22;3555;53.248;10.336;2024-02-21T01:45:30;8.20;99.90
7028;DHT22;3555;53.248;10.336;2024-02-21T01:47:58;8.20;99.90
7028;DHT22;3555;53.248;10.336;2024-02-21T01:50:25;8.20;99.90
7028;DHT22;3555;53.248;10.336;2024-02-21T01:52:52;8.20;99.90
7028;DHT22;3555;53.248;10.336;2024-02-21T01:55:19;8.20;99.90
7028;DHT22;3555;53.248;10.336;2024-02-21T01:57:46;8.20;99.90
7028;DHT22;3555;53.248;10.336;2024-02-21T02:00:14;8.30;99.90
7028;DHT22;3555;53.248;10.336;2024-02-21T02:02:42;8.20;99.90
7028;DHT22;3555;53.248;10.336;2024-02-21T02:05:10;8.20;99.90
7028;DHT22;3555;53.248;10.336;2024-02-21T02:07:37;8.30;99.90
7028;DHT22;3555;53.248;10.336;2024-02-21T02:10:05;8.30;99.90
7028;DHT22;3555;53.248;10.336;2024-02-21T02:12:32;8.30;99.90
7028;DHT22;3555;53.248;10.336;2024-02-21T02:14:59;8.30;99.90
7028;DHT22;3555;53.248;10.336;2024-02-21T02:17:26;8.30;99.90
7028;DHT22;3555;53.248;10.336;2024-02-21T02:19:53;8.30;99.90
7028;DHT22;3555;53.248;10.336;2024-02-21T02:22:23;8.20;99.90
7028;DHT22;3555;53.248;10.336;2024-02-21T02:24:53;8.30;99.90
7028;DHT22;3555;53.248;10.336;2024-02-21T02:27:20;8.20;99.90
7028;DHT22;3555;53.248;10.336;2024-02-21T02:29:48;8.30;99.90
7028;DHT22;3555;53.248;10.336;2024-02-21T02:32:15;8.30;99.90
7028;DHT22;3555;53.248;10.336;2024-02-21T02:34:42;8.30;99.90
7028;DHT22;3555;53.248;10.336;2024-02-21T02:37:09;8.30;99.90
7028;DHT22;3555;53.248;10.336;2024-02-21T02:39:36;8.30;99.90
7028;DHT22;3555;53.248;10.336;2024-02-21T02:42:05;8.20;99.90
7028;DHT22;3555;53.248;10.336;2024-02-21T02:44:32;8.20;99.90
7028;DHT22;3555;53.248;10.336;2024-02-21T02:46:58;8.30;99.90
7028;DHT22;3555;53.248;10.336;2024-02-21T02:49:25;8.20;99.90
7028;DHT22;3555;53.248;10.336;2024-02-21T02:51:52;8.20;99.90
7028;DHT22;3555;53.248;10.336;2024-02-21T02:54:19;8.30;99.90
7028;DHT22;3555;53.248;10.336;2024-02-21T02:56:46;8.30;99.90
7028;DHT22;3555;53.248;10.336;2024-02-21T02:59:14;8.20;99.90
7028;DHT22;3555;53.248;10.336;2024-02-21T03:01:40;8.20;99.90
7028;DHT22;3555;53.248;10.336;2024-02-21T03:04:07;8.20;99.90
7028;DHT22;3555;53.248;10.336;2024-02-21T03:06:34;8.20;99.90
7028;DHT22;3555;53.248;10.336;2024-02-21T03:09:01;8.20;99.90
7028;DHT22;3555;53.248;10.336;2024-02-21T03:11:34;8.20;99.90
7028;DHT22;3555;53.248;10.336;2024-02-21T03:14:00;8.30;99.90
7028;DHT22;3555;53.248;10.336;2024-02-21T03:16:28;8.20;99.90
7028;DHT22;3555;53.248;10.336;2024-02-21T03:18:55;8.20;99.90
7028;DHT22;3555;53.248;10.336;2024-02-21T03:21:22;8.30;99.90
7028;DHT22;3555;53.248;10.336;2024-02-21T03:23:49;8.30;99.90
7028;DHT22;3555;53.248;10.336;2024-02-21T03:26:16;8.20;99.90
7028;DHT22;3555;53.248;10.336;2024-02-21T03:28:43;8.40;99.90
7028;DHT22;3555;53.248;10.336;2024-02-21T03:31:12;8.40;99.90
7028;DHT22;3555;53.248;10.336;2024-02-21T03:33:41;8.30;99.90
7028;DHT22;3555;53.248;10.336;2024-02-21T03:36:13;8.30;99.90
7028;DHT22;3555;53.248;10.336;2024-02-21T03:38:40;8.30;99.90
7028;DHT22;3555;53.248;10.336;2024-02-21T03:41:07;8.30;99.90
7028;DHT22;3555;53.248;10.336;2024-02-21T03:43:33;8.40;99.90
7028;DHT22;3555;53.248;10.336;2024-02-21T03:46:00;8.30;99.90
7028;DHT22;3555;53.248;10.336;2024-02-21T03:48:27;8.30;99.90
7028;DHT22;3555;53.248;10.336;2024-02-21T03:50:56;8.30;99.90
7028;DHT22;3555;53.248;10.336;2024-02-21T03:53:22;8.30;99.90
7028;DHT22;3555;53.248;10.336;2024-02-21T03:55:49;8.40;99.90
7028;DHT22;3555;53.248;10.336;2024-02-21T03:58:16;8.30;99.90
7028;DHT22;3555;53.248;10.336;2024-02-21T04:00:43;8.40;99.90
7028;DHT22;3555;53.248;10.336;2024-02-21T04:03:10;8.50;99.90
7028;DHT22;3555;53.248;10.336;2024-02-21T04:05:37;8.40;99.90
7028;DHT22;3555;53.248;10.336;2024-02-21T04:08:06;8.50;99.90
7028;DHT22;3555;53.248;10.336;2024-02-21T04:10:33;8.50;99.90
7028;DHT22;3555;53.248;10.336;2024-02-21T04:13:00;8.50;99.90
7028;DHT22;3555;53.248;10.336;2024-02-21T04:15:27;8.40;99.90
7028;DHT22;3555;53.248;10.336;2024-02-21T04:17:54;8.50;99.90
7028;DHT22;3555;53.248;10.336;2024-02-21T04:20:21;8.60;99.90
7028;DHT22;3555;53.248;10.336;2024-02-21T04:22:47;8.50;99.90
7028;DHT22;3555;53.248;10.336;2024-02-21T04:25:16;8.50;99.90
7028;DHT22;3555;53.248;10.336;2024-02-21T04:27:43;8.50;99.90
7028;DHT22;3555;53.248;10.336;2024-02-21T04:30:10;8.50;99.90
7028;DHT22;3555;53.248;10.336;2024-02-21T04:32:37;8.50;99.90
7028;DHT22;3555;53.248;10.336;2024-02-21T04:35:04;8.40;99.90
7028;DHT22;3555;53.248;10.336;2024-02-21T04:37:32;8.50;99.90
7028;DHT22;3555;53.248;10.336;2024-02-21T04:39:59;8.50;99.90
7028;DHT22;3555;53.248;10.336;2024-02-21T04:42:27;8.50;99.90
7028;DHT22;3555;53.248;10.336;2024-02-21T04:44:54;8.50;99.90
7028;DHT22;3555;53.248;10.336;2024-02-21T04:47:21;8.40;99.90
7028;DHT22;3555;53.248;10.336;2024-02-21T04:49:49;8.50;99.90
7028;DHT22;3555;53.248;10.336;2024-02-21T04:52:16;8.40;99.90
7028;DHT22;3555;53.248;10.336;2024-02-21T04:54:43;8.40;99.90
7028;DHT22;3555;53.248;10.336;2024-02-21T04:57:09;8.50;99.90
7028;DHT22;3555;53.248;10.336;2024-02-21T04:59:38;8.40;99.90
7028;DHT22;3555;53.248;10.336;2024-02-21T05:02:04;8.40;99.90
7028;DHT22;3555;53.248;10.336;2024-02-21T05:04:31;8.40;99.90
7028;DHT22;3555;53.248;10.336;2024-02-21T05:07:00;8.30;99.90
7028;DHT22;3555;53.248;10.336;2024-02-21T05:09:27;8.30;99.90
7028;DHT22;3555;53.248;10.336;2024-02-21T05:11:54;8.30;99.90
7028;DHT22;3555;53.248;10.336;2024-02-21T05:14:21;8.20;99.90
7028;DHT22;3555;53.248;10.336;2024-02-21T05:16:49;8.30;99.90
7028;DHT22;3555;53.248;10.336;2024-02-21T05:19:16;8.30;99.90
7028;DHT22;3555;53.248;10.336;2024-02-21T05:21:43;8.20;99.90
7028;DHT22;3555;53.248;10.336;2024-02-21T05:24:09;8.20;99.90
7028;DHT22;3555;53.248;10.336;2024-02-21T05:26:36;8.20;99.90
7028;DHT22;3555;53.248;10.336;2024-02-21T05:29:03;8.30;99.90
7028;DHT22;3555;53.248;10.336;2024-02-21T05:31:54;8.20;99.90
7028;DHT22;3555;53.248;10.336;2024-02-21T05:34:23;8.30;99.90
7028;DHT22;3555;53.248;10.336;2024-02-21T05:36:49;8.20;99.90
7028;DHT22;3555;53.248;10.336;2024-02-21T05:39:17;8.20;99.90
7028;DHT22;3555;53.248;10.336;2024-02-21T05:41:44;8.30;99.90
7028;DHT22;3555;53.248;10.336;2024-02-21T05:44:11;8.20;99.90
7028;DHT22;3555;53.248;10.336;2024-02-21T05:46:38;8.20;99.90
7028;DHT22;3555;53.248;10.336;2024-02-21T05:49:05;8.20;99.90
7028;DHT22;3555;53.248;10.336;2024-02-21T05:51:34;8.20;99.90
7028;DHT22;3555;53.248;10.336;2024-02-21T05:54:01;8.20;99.90
7028;DHT22;3555;53.248;10.336;2024-02-21T05:56:28;8.30;99.90
7028;DHT22;3555;53.248;10.336;2024-02-21T05:58:55;8.20;99.90
7028;DHT22;3555;53.248;10.336;2024-02-21T06:01:22;8.20;99.90
7028;DHT22;3555;53.248;10.336;2024-02-21T06:03:49;8.20;99.90
7028;DHT22;3555;53.248;10.336;2024-02-21T06:06:16;8.20;99.90
7028;DHT22;3555;53.248;10.336;2024-02-21T06:08:44;8.30;99.90
7028;DHT22;3555;53.248;10.336;2024-02-21T06:11:11;8.30;99.90
7028;DHT22;3555;53.248;10.336;2024-02-21T06:13:38;8.30;99.90
7028;DHT22;3555;53.248;10.336;2024-02-21T06:16:06;8.20;99.90
7028;DHT22;3555;53.248;10.336;2024-02-21T06:18:35;8.20;99.90
7028;DHT22;3555;53.248;10.336;2024-02-21T06:21:03;8.30;99.90
7028;DHT22;3555;53.248;10.336;2024-02-21T06:23:30;8.10;99.90
7028;DHT22;3555;53.248;10.336;2024-02-21T06:25:58;8.10;99.90
7028;DHT22;3555;53.248;10.336;2024-02-21T06:28:25;8.10;99.90
7028;DHT22;3555;53.248;10.336;2024-02-21T06:30:52;8.10;99.90
7028;DHT22;3555;53.248;10.336;2024-02-21T06:33:19;8.10;99.90
7028;DHT22;3555;53.248;10.336;2024-02-21T06:35:48;8.20;99.90
7028;DHT22;3555;53.248;10.336;2024-02-21T06:38:17;8.20;99.90
7028;DHT22;3555;53.248;10.336;2024-02-21T06:40:44;8.20;99.90
7028;DHT22;3555;53.248;10.336;2024-02-21T06:43:17;8.20;99.90
7028;DHT22;3555;53.248;10.336;2024-02-21T06:45:44;8.30;99.90
7028;DHT22;3555;53.248;10.336;2024-02-21T06:48:13;8.20;99.90
7028;DHT22;3555;53.248;10.336;2024-02-21T06:50:40;8.20;99.90
7028;DHT22;3555;53.248;10.336;2024-02-21T06:53:07;8.10;99.90
7028;DHT22;3555;53.248;10.336;2024-02-21T06:55:34;8.20;99.90
7028;DHT22;3555;53.248;10.336;2024-02-21T06:58:00;8.20;99.90
7028;DHT22;3555;53.248;10.336;2024-02-21T07:00:29;8.20;99.90
7028;DHT22;3555;53.248;10.336;2024-02-21T07:02:56;8.20;99.90
7028;DHT22;3555;53.248;10.336;2024-02-21T07:05:23;8.20;99.90
7028;DHT22;3555;53.248;10.336;2024-02-21T07:07:50;8.20;99.90
7028;DHT22;3555;53.248;10.336;2024-02-21T07:10:17;8.20;99.90
7028;DHT22;3555;53.248;10.336;2024-02-21T07:12:44;8.20;99.90
7028;DHT22;3555;53.248;10.336;2024-02-21T07:15:11;8.20;99.90
7028;DHT22;3555;53.248;10.336;2024-02-21T07:17:39;8.20;99.90
7028;DHT22;3555;53.248;10.336;2024-02-21T07:20:07;8.30;99.90
7028;DHT22;3555;53.248;10.336;2024-02-21T07:22:34;8.30;99.90
7028;DHT22;3555;53.248;10.336;2024-02-21T07:25:01;8.30;99.90
7028;DHT22;3555;53.248;10.336;2024-02-21T07:27:28;8.20;99.90
7028;DHT22;3555;53.248;10.336;2024-02-21T07:29:56;8.20;99.90
7028;DHT22;3555;53.248;10.336;2024-02-21T07:32:23;8.20;99.90
7028;DHT22;3555;53.248;10.336;2024-02-21T07:34:51;8.20;99.90
7028;DHT22;3555;53.248;10.336;2024-02-21T07:37:18;8.30;99.90
7028;DHT22;3555;53.248;10.336;2024-02-21T07:39:45;8.30;99.90
7028;DHT22;3555;53.248;10.336;2024-02-21T07:42:12;8.30;99.90
7028;DHT22;3555;53.248;10.336;2024-02-21T07:44:39;8.40;99.90
7028;DHT22;3555;53.248;10.336;2024-02-21T07:47:06;8.40;99.90
7028;DHT22;3555;53.248;10.336;2024-02-21T07:49:40;8.30;99.90
7028;DHT22;3555;53.248;10.336;2024-02-21T07:52:08;8.40;99.90
7028;DHT22;3555;53.248;10.336;2024-02-21T07:54:35;8.30;99.90
7028;DHT22;3555;53.248;10.336;2024-02-21T07:57:02;8.30;99.90
7028;DHT22;3555;53.248;10.336;2024-02-21T07:59:29;8.40;99.90
7028;DHT22;3555;53.248;10.336;2024-02-21T08:01:56;8.40;99.90
7028;DHT22;3555;53.248;10.336;2024-02-21T08:04:23;8.50;99.90
7028;DHT22;3555;53.248;10.336;2024-02-21T08:06:51;8.50;99.90
7028;DHT22;3555;53.248;10.336;2024-02-21T08:09:21;8.50;99.90
7028;DHT22;3555;53.248;10.336;2024-02-21T08:11:48;8.50;99.90
7028;DHT22;3555;53.248;10.336;2024-02-21T08:14:15;8.50;99.90
7028;DHT22;3555;53.248;10.336;2024-02-21T08:16:42;8.50;99.90
7028;DHT22;3555;53.248;10.336;2024-02-21T08:19:10;8.60;99.90
7028;DHT22;3555;53.248;10.336;2024-02-21T08:21:37;8.50;99.90
7028;DHT22;3555;53.248;10.336;2024-02-21T08:24:04;8.60;99.90
7028;DHT22;3555;53.248;10.336;2024-02-21T08:26:33;8.60;99.90
7028;DHT22;3555;53.248;10.336;2024-02-21T08:29:01;8.60;99.90
7028;DHT22;3555;53.248;10.336;2024-02-21T08:31:28;8.60;99.90
7028;DHT22;3555;53.248;10.336;2024-02-21T08:33:57;8.70;99.90
7028;DHT22;3555;53.248;10.336;2024-02-21T08:36:28;8.70;99.90
7028;DHT22;3555;53.248;10.336;2024-02-21T08:38:55;8.70;99.90
7028;DHT22;3555;53.248;10.336;2024-02-21T08:41:23;8.80;99.90
7028;DHT22;3555;53.248;10.336;2024-02-21T08:43:52;8.80;99.90
7028;DHT22;3555;53.248;10.336;2024-02-21T08:46:20;8.70;99.90
7028;DHT22;3555;53.248;10.336;2024-02-21T08:48:47;8.90;99.90
7028;DHT22;3555;53.248;10.336;2024-02-21T08:51:14;8.80;99.90
7028;DHT22;3555;53.248;10.336;2024-02-21T08:53:41;8.80;99.90
7028;DHT22;3555;53.248;10.336;2024-02-21T08:56:07;8.90;99.90
7028;DHT22;3555;53.248;10.336;2024-02-21T08:58:35;8.90;99.90
7028;DHT22;3555;53.248;10.336;2024-02-21T09:01:04;9.00;99.90
7028;DHT22;3555;53.248;10.336;2024-02-21T09:03:32;8.90;99.90
7028;DHT22;3555;53.248;10.336;2024-02-21T09:05:59;9.00;99.90
7028;DHT22;3555;53.248;10.336;2024-02-21T09:08:26;9.00;99.90
7028;DHT22;3555;53.248;10.336;2024-02-21T09:10:53;9.00;99.90
7028;DHT22;3555;53.248;10.336;2024-02-21T09:13:20;9.00;99.90
7028;DHT22;3555;53.248;10.336;2024-02-21T09:15:47;9.00;99.90
7028;DHT22;3555;53.248;10.336;2024-02-21T09:18:16;9.00;99.90
7028;DHT22;3555;53.248;10.336;2024-02-21T09:20:43;9.10;99.90
7028;DHT22;3555;53.248;10.336;2024-02-21T09:23:10;9.10;99.90
7028;DHT22;3555;53.248;10.336;2024-02-21T09:25:37;9.10;99.90
7028;DHT22;3555;53.248;10.336;2024-02-21T09:28:04;9.10;99.90
7028;DHT22;3555;53.248;10.336;2024-02-21T09:30:31;9.10;99.90
7028;DHT22;3555;53.248;10.336;2024-02-21T09:32:58;9.20;99.90
7028;DHT22;3555;53.248;10.336;2024-02-21T09:35:28;9.10;99.90
7028;DHT22;3555;53.248;10.336;2024-02-21T09:37:55;9.20;99.90
7028;DHT22;3555;53.248;10.336;2024-02-21T09:40:22;9.10;99.90
7028;DHT22;3555;53.248;10.336;2024-02-21T09:42:55;9.20;99.90
7028;DHT22;3555;53.248;10.336;2024-02-21T09:45:24;9.20;99.90
7028;DHT22;3555;53.248;10.336;2024-02-21T09:48:04;9.10;99.90
7028;DHT22;3555;53.248;10.336;2024-02-21T09:50:35;8.90;99.90
7028;DHT22;3555;53.248;10.336;2024-02-21T09:53:03;8.90;99.90
7028;DHT22;3555;53.248;10.336;2024-02-21T09:55:33;8.90;99.90
7028;DHT22;3555;53.248;10.336;2024-02-21T09:58:01;8.80;99.90
7028;DHT22;3555;53.248;10.336;2024-02-21T10:00:29;8.70;99.90
7028;DHT22;3555;53.248;10.336;2024-02-21T10:02:55;8.80;99.90
7028;DHT22;3555;53.248;10.336;2024-02-21T10:05:22;8.70;99.90
7028;DHT22;3555;53.248;10.336;2024-02-21T10:10:27;8.70;99.90
7028;DHT22;3555;53.248;10.336;2024-02-21T10:12:55;8.70;99.90
7028;DHT22;3555;53.248;10.336;2024-02-21T10:15:24;8.70;99.90
7028;DHT22;3555;53.248;10.336;2024-02-21T10:17:59;8.70;99.90
7028;DHT22;3555;53.248;10.336;2024-02-21T10:20:26;8.70;99.90
7028;DHT22;3555;53.248;10.336;2024-02-21T10:23:01;8.70;99.90
7028;DHT22;3555;53.248;10.336;2024-02-21T10:25:29;8.80;99.90
7028;DHT22;3555;53.248;10.336;2024-02-21T10:27:57;8.70;99.90
7028;DHT22;3555;53.248;10.336;2024-02-21T10:30:24;8.80;99.90
7028;DHT22;3555;53.248;10.336;2024-02-21T10:32:51;8.90;99.90
7028;DHT22;3555;53.248;10.336;2024-02-21T10:35:26;8.90;99.90
7028;DHT22;3555;53.248;10.336;2024-02-21T10:37:53;9.00;99.90
7028;DHT22;3555;53.248;10.336;2024-02-21T10:40:22;9.10;99.90
7028;DHT22;3555;53.248;10.336;2024-02-21T10:42:54;9.10;99.90
7028;DHT22;3555;53.248;10.336;2024-02-21T10:45:24;9.10;99.90
7028;DHT22;3555;53.248;10.336;2024-02-21T10:47:56;9.20;99.90
7028;DHT22;3555;53.248;10.336;2024-02-21T10:50:28;9.30;99.90
7028;DHT22;3555;53.248;10.336;2024-02-21T10:53:05;9.30;99.90
7028;DHT22;3555;53.248;10.336;2024-02-21T10:55:40;9.30;99.90
7028;DHT22;3555;53.248;10.336;2024-02-21T10:58:09;9.30;99.90
7028;DHT22;3555;53.248;10.336;2024-02-21T11:00:37;9.30;99.90
7028;DHT22;3555;53.248;10.336;2024-02-21T11:03:05;9.30;99.90
7028;DHT22;3555;53.248;10.336;2024-02-21T11:05:35;9.30;99.90
7028;DHT22;3555;53.248;10.336;2024-02-21T11:08:03;9.30;99.90
7028;DHT22;3555;53.248;10.336;2024-02-21T11:10:32;9.30;99.90
7028;DHT22;3555;53.248;10.336;2024-02-21T11:13:06;9.30;99.90
7028;DHT22;3555;53.248;10.336;2024-02-21T11:15:35;9.30;99.90
7028;DHT22;3555;53.248;10.336;2024-02-21T11:18:02;9.30;99.90
7028;DHT22;3555;53.248;10.336;2024-02-21T11:20:32;9.30;99.90
7028;DHT22;3555;53.248;10.336;2024-02-21T11:23:00;9.30;99.90
7028;DHT22;3555;53.248;10.336;2024-02-21T11:25:28;9.30;99.90
7028;DHT22;3555;53.248;10.336;2024-02-21T11:28:00;9.30;99.90
7028;DHT22;3555;53.248;10.336;2024-02-21T11:30:29;9.20;99.90
7028;DHT22;3555;53.248;10.336;2024-02-21T11:33:02;9.20;99.90
7028;DHT22;3555;53.248;10.336;2024-02-21T11:35:32;9.20;99.90
7028;DHT22;3555;53.248;10.336;2024-02-21T11:38:10;9.30;99.90
7028;DHT22;3555;53.248;10.336;2024-02-21T11:40:41;9.30;99.90
7028;DHT22;3555;53.248;10.336;2024-02-21T11:43:08;9.20;99.90
7028;DHT22;3555;53.248;10.336;2024-02-21T11:45:35;9.20;99.90
7028;DHT22;3555;53.248;10.336;2024-02-21T11:48:05;9.10;99.90
7028;DHT22;3555;53.248;10.336;2024-02-21T11:50:31;9.10;99.90
7028;DHT22;3555;53.248;10.336;2024-02-21T11:52:58;9.00;99.90
7028;DHT22;3555;53.248;10.336;2024-02-21T11:55:25;9.10;99.90
7028;DHT22;3555;53.248;10.336;2024-02-21T11:57:52;9.20;99.90
7028;DHT22;3555;53.248;10.336;2024-02-21T12:00:20;9.20;99.90
7028;DHT22;3555;53.248;10.336;2024-02-21T12:02:47;9.10;99.90
7028;DHT22;3555;53.248;10.336;2024-02-21T12:05:19;9.00;99.90
7028;DHT22;3555;53.248;10.336;2024-02-21T12:07:46;9.00;99.90
7028;DHT22;3555;53.248;10.336;2024-02-21T12:10:13;9.00;99.90
7028;DHT22;3555;53.248;10.336;2024-02-21T12:12:40;9.10;99.90
7028;DHT22;3555;53.248;10.336;2024-02-21T12:15:07;9.00;99.90
7028;DHT22;3555;53.248;10.336;2024-02-21T12:17:34;9.00;99.90
7028;DHT22;3555;53.248;10.336;2024-02-21T12:20:02;9.00;99.90
7028;DHT22;3555;53.248;10.336;2024-02-21T12:22:32;9.10;99.90
7028;DHT22;3555;53.248;10.336;2024-02-21T12:24:59;9.10;99.90
7028;DHT22;3555;53.248;10.336;2024-02-21T12:27:27;9.20;99.90
7028;DHT22;3555;53.248;10.336;2024-02-21T12:29:54;9.20;99.90
7028;DHT22;3555;53.248;10.336;2024-02-21T12:32:21;9.20;99.90
7028;DHT22;3555;53.248;10.336;2024-02-21T12:34:47;9.30;99.90
7028;DHT22;3555;53.248;10.336;2024-02-21T12:37:15;9.20;99.90
7028;DHT22;3555;53.248;10.336;2024-02-21T12:39:43;9.20;99.90
7028;DHT22;3555;53.248;10.336;2024-02-21T12:42:10;9.30;99.90
7028;DHT22;3555;53.248;10.336;2024-02-21T12:44:37;9.30;99.90
7028;DHT22;3555;53.248;10.336;2024-02-21T12:47:04;9.40;99.90
7028;DHT22;3555;53.248;10.336;2024-02-21T12:49:30;9.50;99.90
7028;DHT22;3555;53.248;10.336;2024-02-21T12:51:58;9.50;99.90
7028;DHT22;3555;53.248;10.336;2024-02-21T12:54:24;9.50;99.90
7028;DHT22;3555;53.248;10.336;2024-02-21T12:56:53;9.50;99.90
7028;DHT22;3555;53.248;10.336;2024-02-21T12:59:20;9.40;99.90
7028;DHT22;3555;53.248;10.336;2024-02-21T13:01:46;9.40;99.90
7028;DHT22;3555;53.248;10.336;2024-02-21T13:04:13;9.40;99.90
7028;DHT22;3555;53.248;10.336;2024-02-21T13:06:40;9.30;99.90
7028;DHT22;3555;53.248;10.336;2024-02-21T13:09:07;9.40;99.90
7028;DHT22;3555;53.248;10.336;2024-02-21T13:11:36;9.40;99.90
7028;DHT22;3555;53.248;10.336;2024-02-21T13:14:05;9.40;99.90
7028;DHT22;3555;53.248;10.336;2024-02-21T13:16:31;9.50;99.90
7028;DHT22;3555;53.248;10.336;2024-02-21T13:18:59;9.60;99.90
7028;DHT22;3555;53.248;10.336;2024-02-21T13:21:26;9.70;99.90
7028;DHT22;3555;53.248;10.336;2024-02-21T13:23:53;9.70;99.90
7028;DHT22;3555;53.248;10.336;2024-02-21T13:26:20;9.70;99.90
7028;DHT22;3555;53.248;10.336;2024-02-21T13:28:47;9.70;99.90
7028;DHT22;3555;53.248;10.336;2024-02-21T13:31:15;9.80;99.90
7028;DHT22;3555;53.248;10.336;2024-02-21T13:33:42;9.70;99.90
7028;DHT22;3555;53.248;10.336;2024-02-21T13:36:10;9.70;99.90
7028;DHT22;3555;53.248;10.336;2024-02-21T13:38:37;9.80;99.90
7028;DHT22;3555;53.248;10.336;2024-02-21T13:41:05;9.80;99.90
7028;DHT22;3555;53.248;10.336;2024-02-21T13:43:32;9.80;99.90
7028;DHT22;3555;53.248;10.336;2024-02-21T13:46:00;9.70;99.90
7028;DHT22;3555;53.248;10.336;2024-02-21T13:48:29;9.70;99.90
7028;DHT22;3555;53.248;10.336;2024-02-21T13:50:56;9.70;99.90
7028;DHT22;3555;53.248;10.336;2024-02-21T13:53:23;9.70;99.90
7028;DHT22;3555;53.248;10.336;2024-02-21T13:55:50;9.70;99.90
7028;DHT22;3555;53.248;10.336;2024-02-21T13:58:17;9.80;99.90
7028;DHT22;3555;53.248;10.336;2024-02-21T14:00:44;9.80;99.90
7028;DHT22;3555;53.248;10.336;2024-02-21T14:03:11;9.80;99.90
7028;DHT22;3555;53.248;10.336;2024-02-21T14:05:39;9.80;99.90
7028;DHT22;3555;53.248;10.336;2024-02-21T14:08:06;9.80;99.90
7028;DHT22;3555;53.248;10.336;2024-02-21T14:10:33;9.90;99.90
7028;DHT22;3555;53.248;10.336;2024-02-21T14:13:00;9.90;99.90
7028;DHT22;3555;53.248;10.336;2024-02-21T14:15:27;9.90;99.90
7028;DHT22;3555;53.248;10.336;2024-02-21T14:17:54;9.90;99.90
7028;DHT22;3555;53.248;10.336;2024-02-21T14:20:21;9.80;99.90
7028;DHT22;3555;53.248;10.336;2024-02-21T14:22:49;9.70;99.90
7028;DHT22;3555;53.248;10.336;2024-02-21T14:25:16;9.80;99.90
7028;DHT22;3555;53.248;10.336;2024-02-21T14:27:43;9.80;99.90
7028;DHT22;3555;53.248;10.336;2024-02-21T14:30:10;9.90;99.90
7028;DHT22;3555;53.248;10.336;2024-02-21T14:32:37;9.90;99.90
7028;DHT22;3555;53.248;10.336;2024-02-21T14:35:05;9.90;99.90
7028;DHT22;3555;53.248;10.336;2024-02-21T14:37:32;9.90;99.90
7028;DHT22;3555;53.248;10.336;2024-02-21T14:40:00;9.90;99.90
7028;DHT22;3555;53.248;10.336;2024-02-21T14:42:27;9.90;99.90
7028;DHT22;3555;53.248;10.336;2024-02-21T14:44:54;9.80;99.90
7028;DHT22;3555;53.248;10.336;2024-02-21T14:47:29;9.90;99.90
7028;DHT22;3555;53.248;10.336;2024-02-21T14:49:56;9.90;99.90
7028;DHT22;3555;53.248;10.336;2024-02-21T14:52:23;10.00;99.90
7028;DHT22;3555;53.248;10.336;2024-02-21T14:54:53;9.80;99.90
7028;DHT22;3555;53.248;10.336;2024-02-21T14:57:21;9.90;99.90
7028;DHT22;3555;53.248;10.336;2024-02-21T14:59:50;9.90;99.90
7028;DHT22;3555;53.248;10.336;2024-02-21T15:02:21;9.90;99.90
7028;DHT22;3555;53.248;10.336;2024-02-21T15:04:48;9.90;99.90
7028;DHT22;3555;53.248;10.336;2024-02-21T15:07:16;9.80;99.90
7028;DHT22;3555;53.248;10.336;2024-02-21T15:09:44;9.90;99.90
7028;DHT22;3555;53.248;10.336;2024-02-21T15:12:11;9.70;99.90
7028;DHT22;3555;53.248;10.336;2024-02-21T15:14:39;9.70;99.90
7028;DHT22;3555;53.248;10.336;2024-02-21T15:17:06;9.80;99.90
7028;DHT22;3555;53.248;10.336;2024-02-21T15:19:33;9.70;99.90
7028;DHT22;3555;53.248;10.336;2024-02-21T15:22:00;9.70;99.90
7028;DHT22;3555;53.248;10.336;2024-02-21T15:24:26;9.70;99.90
7028;DHT22;3555;53.248;10.336;2024-02-21T15:26:53;9.70;99.90
7028;DHT22;3555;53.248;10.336;2024-02-21T15:29:20;9.80;99.90
7028;DHT22;3555;53.248;10.336;2024-02-21T15:31:50;9.70;99.90
7028;DHT22;3555;53.248;10.336;2024-02-21T15:34:18;9.70;99.90
7028;DHT22;3555;53.248;10.336;2024-02-21T15:36:45;9.70;99.90
7028;DHT22;3555;53.248;10.336;2024-02-21T15:39:11;9.60;99.90
7028;DHT22;3555;53.248;10.336;2024-02-21T15:41:39;9.50;99.90
7028;DHT22;3555;53.248;10.336;2024-02-21T15:44:06;9.50;99.90
7028;DHT22;3555;53.248;10.336;2024-02-21T15:46:32;9.50;99.90
7028;DHT22;3555;53.248;10.336;2024-02-21T15:49:03;9.50;99.90
7028;DHT22;3555;53.248;10.336;2024-02-21T15:51:30;9.50;99.90
7028;DHT22;3555;53.248;10.336;2024-02-21T15:53:58;9.40;99.90
7028;DHT22;3555;53.248;10.336;2024-02-21T15:56:25;9.40;99.90
7028;DHT22;3555;53.248;10.336;2024-02-21T15:58:53;9.50;99.90
7028;DHT22;3555;53.248;10.336;2024-02-21T16:01:20;9.50;99.90
7028;DHT22;3555;53.248;10.336;2024-02-21T16:03:48;9.40;99.90
7028;DHT22;3555;53.248;10.336;2024-02-21T16:06:17;9.40;99.90
7028;DHT22;3555;53.248;10.336;2024-02-21T16:08:43;9.40;99.90